Time;durP1;ratioP1;P1;durP2;ratioP2;P2;SDS_P1;SDS_P2;PMS_P1;PMS_P2;Temp;Humidity;BMP_temperature;BMP_pressure;BME280_temperature;BME280_humidity;BME280_pressure;Samples;Min_cycle;Max_cycle;Signal;HPM_P1;HPM_P2
2022/01/09 00:00:58;;;;;;;3.80;2.88;;;2.30;99.90;;;;;;4974193;28;20619;-73
2022/01/09 00:03:25;;;;;;;4.22;2.28;;;2.30;99.90;;;;;;4991572;28;20232;-72
2022/01/09 00:05:52;;;;;;;3.58;3.03;;;2.30;99.90;;;;;;4984560;28;20046;-72
2022/01/09 00:08:18;;;;;;;5.05;3.42;;;2.30;99.90;;;;;;4967727;28;20062;-74
2022/01/09 00:10:47;;;;;;;3.83;3.35;;;2.30;99.90;;;;;;4981051;28;20108;-73
2022/01/09 00:13:14;;;;;;;3.85;3.25;;;2.30;99.90;;;;;;4980758;28;20154;-72
2022/01/09 00:15:41;;;;;;;3.63;3.28;;;2.30;99.90;;;;;;4979198;28;20529;-73
2022/01/09 00:18:07;;;;;;;4.97;4.05;;;2.20;99.90;;;;;;4981229;28;20522;-71
2022/01/09 00:20:34;;;;;;;4.85;4.07;;;2.20;99.90;;;;;;4979169;28;20061;-73
2022/01/09 00:23:01;;;;;;;7.32;4.10;;;2.20;99.90;;;;;;5013324;23;20053;-77
2022/01/09 00:25:28;;;;;;;5.50;4.20;;;2.20;99.90;;;;;;4991039;28;20579;-76
2022/01/09 00:27:55;;;;;;;5.07;3.65;;;2.20;99.90;;;;;;5009496;28;20049;-75
2022/01/09 00:30:23;;;;;;;7.40;4.93;;;2.10;99.90;;;;;;5006243;28;20065;-73
2022/01/09 00:32:53;;;;;;;5.50;4.80;;;2.10;99.90;;;;;;4989256;28;20081;-75
2022/01/09 00:35:20;;;;;;;3.60;2.97;;;2.10;99.90;;;;;;4992574;28;20070;-75
2022/01/09 00:37:47;;;;;;;7.57;4.63;;;2.10;99.90;;;;;;4993674;28;20049;-74
2022/01/09 00:40:15;;;;;;;3.72;3.33;;;2.10;99.90;;;;;;4993653;28;20423;-73
2022/01/09 00:42:43;;;;;;;3.70;3.25;;;2.10;99.90;;;;;;4991988;28;20839;-75
2022/01/09 00:45:12;;;;;;;4.18;3.40;;;2.10;99.90;;;;;;4992262;28;20050;-75
2022/01/09 00:47:39;;;;;;;6.80;4.22;;;2.10;99.90;;;;;;4992906;28;20108;-76
2022/01/09 00:50:07;;;;;;;5.28;4.00;;;2.10;99.90;;;;;;4993588;28;20548;-74
2022/01/09 00:52:34;;;;;;;7.45;4.68;;;2.10;99.90;;;;;;5009698;28;20050;-76
2022/01/09 00:55:01;;;;;;;9.20;5.25;;;2.10;99.90;;;;;;4993450;28;20461;-75
2022/01/09 00:57:28;;;;;;;5.95;4.57;;;2.00;99.90;;;;;;4988674;28;20049;-75
2022/01/09 00:59:55;;;;;;;4.75;3.65;;;2.00;99.90;;;;;;4975812;28;20103;-75
2022/01/09 01:02:22;;;;;;;5.50;4.93;;;2.00;99.90;;;;;;5004682;28;20082;-76
2022/01/09 01:04:51;;;;;;;6.30;5.22;;;2.00;99.90;;;;;;5008480;28;20057;-76
2022/01/09 01:07:19;;;;;;;6.47;5.78;;;2.00;99.90;;;;;;4992397;28;20038;-75
2022/01/09 01:09:46;;;;;;;6.25;4.18;;;1.90;99.90;;;;;;4994335;28;20365;-75
2022/01/09 01:12:14;;;;;;;6.72;5.22;;;1.90;99.90;;;;;;4992854;28;20045;-76
2022/01/09 01:14:40;;;;;;;6.85;5.28;;;1.90;99.90;;;;;;4993432;28;20053;-76
2022/01/09 01:17:09;;;;;;;6.20;4.65;;;1.90;99.90;;;;;;4975710;28;20060;-75
2022/01/09 01:19:36;;;;;;;7.93;5.90;;;1.90;99.90;;;;;;4994929;28;20046;-77
2022/01/09 01:22:23;;;;;;;5.63;4.28;;;1.80;99.90;;;;;;4995158;28;20049;-75
2022/01/09 01:24:52;;;;;;;7.13;6.20;;;1.80;99.90;;;;;;4989378;28;20132;-75
2022/01/09 01:27:19;;;;;;;7.60;6.55;;;1.80;99.90;;;;;;4989127;28;20122;-77
2022/01/09 01:29:46;;;;;;;5.70;4.13;;;1.80;99.90;;;;;;4991766;28;20054;-75
2022/01/09 01:32:12;;;;;;;7.68;6.07;;;1.70;99.90;;;;;;5004465;28;20655;-77
2022/01/09 01:34:39;;;;;;;8.85;5.57;;;1.70;99.90;;;;;;5006443;28;20066;-77
2022/01/09 01:37:06;;;;;;;8.00;5.97;;;1.70;99.90;;;;;;4992623;28;20073;-77
2022/01/09 01:39:33;;;;;;;7.60;6.15;;;1.70;99.90;;;;;;4993957;28;20049;-79
2022/01/09 01:42:00;;;;;;;7.57;4.85;;;1.70;99.90;;;;;;4992556;28;20049;-76
2022/01/09 01:44:39;;;;;;;8.90;7.05;;;1.70;99.90;;;;;;4979155;28;20452;-75
2022/01/09 01:47:07;;;;;;;9.00;6.03;;;1.80;99.90;;;;;;4992861;28;20373;-76
2022/01/09 01:49:34;;;;;;;8.73;6.55;;;1.80;99.90;;;;;;5011206;28;20396;-76
2022/01/09 01:52:01;;;;;;;7.30;5.75;;;1.80;99.90;;;;;;4993216;28;20551;-76
2022/01/09 01:54:28;;;;;;;7.38;5.00;;;1.90;99.90;;;;;;4995032;28;20057;-76
2022/01/09 01:56:56;;;;;;;7.30;6.40;;;1.90;99.90;;;;;;4979087;28;20252;-77
2022/01/09 01:59:23;;;;;;;5.88;4.95;;;1.80;99.90;;;;;;4994806;28;20057;-76
2022/01/09 02:01:49;;;;;;;9.02;6.10;;;1.90;99.90;;;;;;4991297;28;20049;-75
2022/01/09 02:04:16;;;;;;;7.20;5.38;;;1.90;99.90;;;;;;4994939;28;20112;-77
2022/01/09 02:06:44;;;;;;;8.45;6.82;;;1.90;99.90;;;;;;4993373;28;21571;-77
2022/01/09 02:09:10;;;;;;;9.02;7.00;;;1.90;99.90;;;;;;4997127;28;20041;-76
2022/01/09 02:11:38;;;;;;;7.32;4.78;;;1.90;99.90;;;;;;4991591;28;20049;-76
2022/01/09 02:14:04;;;;;;;7.72;5.78;;;1.90;99.90;;;;;;4974055;28;20587;-76
2022/01/09 02:16:35;;;;;;;9.20;6.07;;;1.90;99.90;;;;;;4974118;28;20156;-78
2022/01/09 02:19:02;;;;;;;5.88;4.82;;;1.90;99.90;;;;;;4989566;28;20157;-75
2022/01/09 02:21:29;;;;;;;4.25;3.22;;;1.90;99.90;;;;;;4995434;28;20046;-76
2022/01/09 02:23:56;;;;;;;5.45;3.25;;;2.00;99.90;;;;;;4997457;28;20084;-74
2022/01/09 02:26:24;;;;;;;6.95;4.97;;;2.00;99.90;;;;;;4995421;28;20405;-73
2022/01/09 02:28:51;;;;;;;5.00;3.83;;;2.00;99.90;;;;;;4994497;28;20210;-74
2022/01/09 02:31:19;;;;;;;4.60;3.28;;;2.00;99.90;;;;;;4995771;28;20050;-72
2022/01/09 02:33:46;;;;;;;4.05;2.83;;;2.00;99.90;;;;;;4983204;28;20047;-76
2022/01/09 02:36:13;;;;;;;5.97;4.30;;;2.00;99.90;;;;;;4980791;28;20074;-74
2022/01/09 02:38:40;;;;;;;3.78;2.90;;;2.00;99.90;;;;;;4993954;28;20058;-72
2022/01/09 02:41:06;;;;;;;5.35;4.07;;;2.00;99.90;;;;;;5011314;28;20183;-75
2022/01/09 02:43:34;;;;;;;4.55;3.38;;;2.10;99.90;;;;;;4986205;28;20077;-76
2022/01/09 02:48:34;;;;;;;4.57;3.60;;;2.10;99.90;;;;;;4994533;28;20554;-76
2022/01/09 02:51:14;;;;;;;4.53;3.72;;;2.10;99.90;;;;;;4994338;28;20107;-72
2022/01/09 02:53:46;;;;;;;3.25;2.85;;;2.10;99.90;;;;;;4995996;28;20197;-74
2022/01/09 02:56:13;;;;;;;3.60;2.67;;;2.20;99.90;;;;;;4977384;28;20049;-74
2022/01/09 02:58:44;;;;;;;5.47;3.25;;;2.10;99.90;;;;;;4995188;28;20095;-76
2022/01/09 03:01:11;;;;;;;2.60;2.17;;;2.10;99.90;;;;;;4994440;28;20062;-78
2022/01/09 03:03:39;;;;;;;2.28;1.30;;;2.10;99.90;;;;;;5006008;28;20074;-79
2022/01/09 03:06:08;;;;;;;3.35;1.80;;;2.10;99.90;;;;;;4976377;28;20073;-74
2022/01/09 03:08:35;;;;;;;2.42;2.03;;;2.10;99.90;;;;;;4994981;28;20080;-76
2022/01/09 03:11:02;;;;;;;1.58;1.38;;;2.10;99.90;;;;;;4977985;28;20732;-76
2022/01/09 03:13:29;;;;;;;1.20;1.10;;;2.10;99.90;;;;;;4979569;28;20042;-75
2022/01/09 03:15:55;;;;;;;2.28;1.80;;;2.00;99.90;;;;;;5009223;28;20049;-77
2022/01/09 03:18:23;;;;;;;2.15;1.45;;;2.10;99.90;;;;;;5008921;28;20058;-76
2022/01/09 03:20:50;;;;;;;1.77;1.10;;;2.10;99.90;;;;;;4992997;28;20050;-75
2022/01/09 03:23:17;;;;;;;2.05;1.50;;;2.00;99.90;;;;;;5010667;28;20069;-77
2022/01/09 03:25:44;;;;;;;2.22;1.10;;;2.00;99.90;;;;;;4992754;28;20076;-76
2022/01/09 03:28:11;;;;;;;2.40;1.80;;;2.00;99.90;;;;;;4993004;28;20112;-75
2022/01/09 03:30:38;;;;;;;3.30;1.55;;;1.90;99.90;;;;;;4993840;28;20046;-76
2022/01/09 03:33:04;;;;;;;1.80;1.23;;;1.90;99.90;;;;;;5005019;28;20436;-76
2022/01/09 03:35:32;;;;;;;1.80;1.30;;;1.90;99.90;;;;;;4993317;28;20056;-76
2022/01/09 03:37:59;;;;;;;1.98;1.65;;;1.80;99.90;;;;;;4990441;28;20393;-77
2022/01/09 03:40:28;;;;;;;2.72;1.90;;;1.80;99.90;;;;;;4992614;28;20128;-77
2022/01/09 03:42:55;;;;;;;1.85;1.25;;;1.80;99.90;;;;;;4993481;28;20392;-75
2022/01/09 03:45:24;;;;;;;1.80;1.50;;;1.80;99.90;;;;;;4993731;28;20407;-77
2022/01/09 03:47:51;;;;;;;1.80;1.33;;;1.70;99.90;;;;;;4994347;28;20236;-76
2022/01/09 03:50:19;;;;;;;1.58;1.00;;;1.70;99.90;;;;;;4992904;28;20153;-76
2022/01/09 03:52:48;;;;;;;1.13;0.88;;;1.70;99.90;;;;;;4995151;28;20080;-75
2022/01/09 03:55:17;;;;;;;2.45;1.35;;;1.70;99.90;;;;;;4977759;28;20054;-76
2022/01/09 03:57:45;;;;;;;2.50;1.85;;;1.60;99.90;;;;;;5008141;28;20053;-77
2022/01/09 04:00:15;;;;;;;1.92;1.55;;;1.60;99.90;;;;;;4992536;28;20068;-76
2022/01/09 04:02:45;;;;;;;1.83;1.48;;;1.60;99.90;;;;;;5009017;28;20077;-73
2022/01/09 04:05:12;;;;;;;1.90;1.30;;;1.60;99.90;;;;;;4994063;28;20053;-75
2022/01/09 04:07:39;;;;;;;2.05;1.85;;;1.60;99.90;;;;;;4992974;28;20038;-76
2022/01/09 04:10:20;;;;;;;1.98;1.45;;;1.60;99.90;;;;;;4981721;28;20049;-74
2022/01/09 04:12:49;;;;;;;2.17;1.60;;;1.60;99.90;;;;;;4994968;28;20045;-75
2022/01/09 04:15:17;;;;;;;3.28;1.58;;;1.60;99.90;;;;;;4996794;28;20389;-77
2022/01/09 04:17:51;;;;;;;2.45;2.00;;;1.60;99.90;;;;;;4998518;28;20049;-78
2022/01/09 04:20:25;;;;;;;3.70;2.25;;;1.60;99.90;;;;;;5000466;28;20046;-78
2022/01/09 04:22:52;;;;;;;3.17;2.53;;;1.60;99.90;;;;;;5000174;28;20500;-78
2022/01/09 04:25:20;;;;;;;4.03;2.78;;;1.60;99.90;;;;;;4979436;28;20058;-78
2022/01/09 04:27:48;;;;;;;4.38;2.35;;;1.60;99.90;;;;;;4997003;28;20050;-76
2022/01/09 04:30:15;;;;;;;4.05;2.92;;;1.60;99.90;;;;;;4996189;28;20045;-78
2022/01/09 04:32:42;;;;;;;4.90;3.45;;;1.60;99.90;;;;;;4994288;28;20042;-79
2022/01/09 04:35:12;;;;;;;5.47;3.28;;;1.60;99.90;;;;;;4998335;28;20854;-79
2022/01/09 04:37:39;;;;;;;5.28;3.60;;;1.70;99.90;;;;;;4997488;28;20056;-79
2022/01/09 04:40:10;;;;;;;4.93;3.42;;;1.70;99.90;;;;;;4997816;28;20244;-79
2022/01/09 04:43:13;;;;;;;5.57;3.80;;;1.60;99.90;;;;;;5017397;28;20050;-78
2022/01/09 04:45:31;;;;;;;6.10;4.50;;;1.50;99.90;;;;;;4996981;28;20042;-78
2022/01/09 04:48:02;;;;;;;7.03;4.25;;;1.50;99.90;;;;;;4993066;28;20492;-77
2022/01/09 04:50:31;;;;;;;7.05;4.30;;;1.50;99.90;;;;;;4974292;28;20050;-78
2022/01/09 04:53:09;;;;;;;7.57;3.95;;;1.50;99.90;;;;;;4994045;28;20504;-77
2022/01/09 04:55:45;;;;;;;8.00;4.32;;;1.50;99.90;;;;;;4994552;28;20561;-77
2022/01/09 04:58:12;;;;;;;5.65;3.65;;;1.50;99.90;;;;;;4996404;28;20520;-78
2022/01/09 05:00:40;;;;;;;3.95;2.83;;;1.40;99.90;;;;;;4995718;28;20049;-77
2022/01/09 05:03:08;;;;;;;5.13;3.13;;;1.40;99.90;;;;;;5011511;28;20050;-78
2022/01/09 05:05:36;;;;;;;6.22;3.88;;;1.40;99.90;;;;;;4996031;28;20282;-77
2022/01/09 05:08:03;;;;;;;5.22;3.95;;;1.40;99.90;;;;;;4997457;28;20285;-77
2022/01/09 05:10:30;;;;;;;4.93;3.45;;;1.50;99.90;;;;;;4994569;28;20295;-77
2022/01/09 05:12:57;;;;;;;7.65;3.90;;;1.40;99.90;;;;;;4996485;28;20509;-77
2022/01/09 05:15:24;;;;;;;6.30;3.33;;;1.40;99.90;;;;;;4978035;28;20401;-78
2022/01/09 05:17:53;;;;;;;6.60;4.07;;;1.40;99.90;;;;;;4991307;28;20761;-77
2022/01/09 05:20:20;;;;;;;5.80;4.13;;;1.40;99.90;;;;;;4992925;28;20400;-77
2022/01/09 05:22:47;;;;;;;7.45;4.80;;;1.40;99.90;;;;;;5014764;28;20050;-77
2022/01/09 05:25:14;;;;;;;9.35;4.43;;;1.40;99.90;;;;;;5014112;28;20715;-77
2022/01/09 05:27:40;;;;;;;8.02;4.88;;;1.50;99.90;;;;;;4996617;28;20286;-78
2022/01/09 05:30:07;;;;;;;50.58;11.32;;;1.60;99.90;;;;;;5010438;28;20104;-77
2022/01/09 05:32:34;;;;;;;8.38;5.05;;;1.60;99.90;;;;;;4991355;28;20061;-78
2022/01/09 05:35:02;;;;;;;10.52;5.53;;;1.50;99.90;;;;;;4997353;28;20041;-77
2022/01/09 05:37:29;;;;;;;14.18;5.47;;;1.50;99.90;;;;;;4996508;28;20057;-78
2022/01/09 05:39:56;;;;;;;9.02;4.72;;;1.50;99.90;;;;;;5014386;28;21221;-78
2022/01/09 05:42:23;;;;;;;9.35;4.60;;;1.50;99.90;;;;;;4996688;28;20101;-78
2022/01/09 05:44:50;;;;;;;20.45;5.95;;;1.40;99.90;;;;;;4996867;28;20061;-78
2022/01/09 05:47:17;;;;;;;9.07;4.50;;;1.40;99.90;;;;;;4978313;28;20049;-78
2022/01/09 05:49:44;;;;;;;8.90;5.15;;;1.40;99.90;;;;;;4999116;28;20336;-78
2022/01/09 05:52:10;;;;;;;12.45;6.35;;;1.40;99.90;;;;;;4992871;28;20394;-79
2022/01/09 05:54:37;;;;;;;9.90;6.32;;;1.40;99.90;;;;;;5001745;28;20528;-78
2022/01/09 05:57:05;;;;;;;10.57;6.20;;;1.40;99.90;;;;;;4996990;28;20050;-78
2022/01/09 05:59:32;;;;;;;11.02;5.97;;;1.30;99.90;;;;;;4994690;28;20054;-78
2022/01/09 06:01:59;;;;;;;12.20;5.55;;;1.30;99.90;;;;;;4995573;28;20050;-78
2022/01/09 06:04:25;;;;;;;8.48;5.35;;;1.30;99.90;;;;;;4995362;28;20136;-77
2022/01/09 06:06:54;;;;;;;12.02;6.18;;;1.30;99.90;;;;;;4996441;28;20046;-75
2022/01/09 06:09:21;;;;;;;9.20;5.97;;;1.20;99.90;;;;;;4997302;28;20061;-77
2022/01/09 06:11:48;;;;;;;13.43;7.68;;;1.30;99.90;;;;;;5012274;28;20052;-76
2022/01/09 06:14:15;;;;;;;10.75;6.43;;;1.20;99.90;;;;;;4995912;28;20233;-78
2022/01/09 06:16:42;;;;;;;13.27;7.25;;;1.20;99.90;;;;;;4995775;28;20176;-76
2022/01/09 06:19:10;;;;;;;38.28;9.63;;;1.20;99.90;;;;;;4996720;28;20730;-77
2022/01/09 06:21:37;;;;;;;15.80;8.32;;;1.20;99.90;;;;;;5010359;28;20085;-76
2022/01/09 06:24:04;;;;;;;31.50;9.30;;;1.20;99.90;;;;;;5007690;23;20042;-77
2022/01/09 06:26:31;;;;;;;14.88;7.57;;;1.20;99.90;;;;;;4982264;28;20043;-77
2022/01/09 06:28:57;;;;;;;20.48;8.52;;;1.20;99.90;;;;;;4982804;28;20922;-77
2022/01/09 06:31:24;;;;;;;15.48;7.55;;;1.10;99.90;;;;;;4981580;28;20081;-76
2022/01/09 06:33:51;;;;;;;17.90;8.57;;;1.10;99.90;;;;;;4981857;28;20121;-75
2022/01/09 06:36:18;;;;;;;19.25;8.55;;;1.20;99.90;;;;;;4965174;28;20112;-77
2022/01/09 06:38:45;;;;;;;15.43;6.85;;;1.20;99.90;;;;;;4988508;28;20043;-77
2022/01/09 06:41:11;;;;;;;14.18;7.03;;;1.10;99.90;;;;;;5000273;28;20077;-76
2022/01/09 06:43:38;;;;;;;15.20;6.93;;;1.10;99.90;;;;;;4998282;28;20053;-77
2022/01/09 06:46:05;;;;;;;17.60;6.70;;;1.10;99.90;;;;;;4966030;28;20302;-76
2022/01/09 06:48:32;;;;;;;14.10;5.90;;;1.10;99.90;;;;;;4983622;28;20046;-77
2022/01/09 06:50:59;;;;;;;12.57;5.85;;;1.10;99.90;;;;;;4967554;28;20169;-77
2022/01/09 06:53:26;;;;;;;12.25;5.70;;;1.10;99.90;;;;;;4968718;28;20578;-77
2022/01/09 06:55:53;;;;;;;14.25;6.05;;;1.10;99.90;;;;;;4998142;28;20384;-77
2022/01/09 06:58:21;;;;;;;15.68;7.00;;;1.10;99.90;;;;;;4969850;28;20062;-78
2022/01/09 07:00:48;;;;;;;22.17;8.70;;;1.10;99.90;;;;;;4958656;28;20473;-77
2022/01/09 07:03:15;;;;;;;26.63;10.60;;;1.20;99.90;;;;;;4983742;28;20089;-78
2022/01/09 07:05:42;;;;;;;27.90;11.85;;;1.30;99.90;;;;;;4968579;28;20193;-76
2022/01/09 07:08:09;;;;;;;21.70;10.43;;;1.30;99.90;;;;;;4967296;28;20130;-77
2022/01/09 07:10:36;;;;;;;23.30;10.32;;;1.40;99.90;;;;;;4978482;28;20121;-76
2022/01/09 07:13:04;;;;;;;22.60;11.02;;;1.40;99.90;;;;;;4984903;28;20553;-78
2022/01/09 07:15:30;;;;;;;26.05;12.23;;;1.50;99.90;;;;;;4982594;28;20502;-77
2022/01/09 07:17:57;;;;;;;24.20;10.05;;;1.50;99.90;;;;;;4951018;28;20092;-78
2022/01/09 07:20:24;;;;;;;23.98;10.43;;;1.60;99.90;;;;;;4984976;28;20137;-78
2022/01/09 07:22:51;;;;;;;22.38;10.15;;;1.60;99.90;;;;;;4998548;28;20564;-78
2022/01/09 07:25:18;;;;;;;28.65;11.45;;;1.70;99.90;;;;;;4978213;28;20062;-77
2022/01/09 07:27:45;;;;;;;29.45;11.25;;;1.70;99.90;;;;;;4983489;28;20046;-77
2022/01/09 07:30:11;;;;;;;31.02;12.35;;;1.80;99.90;;;;;;4983640;28;20052;-79
2022/01/09 07:32:40;;;;;;;34.22;14.10;;;1.90;99.90;;;;;;4966604;28;20093;-77
2022/01/09 07:35:07;;;;;;;35.05;14.02;;;1.90;99.90;;;;;;4982366;28;20125;-77
2022/01/09 07:37:34;;;;;;;83.38;18.65;;;2.00;99.90;;;;;;4964686;28;20047;-76
2022/01/09 07:40:03;;;;;;;47.33;15.55;;;2.00;99.90;;;;;;4963597;28;20054;-78
2022/01/09 07:42:30;;;;;;;43.75;15.70;;;2.10;99.90;;;;;;4964744;28;20043;-77
2022/01/09 07:44:56;;;;;;;53.20;18.98;;;2.10;99.90;;;;;;4966824;28;20454;-78
2022/01/09 07:47:23;;;;;;;57.78;17.42;;;2.10;99.90;;;;;;4982299;28;20074;-78
2022/01/09 07:49:50;;;;;;;49.60;15.63;;;2.00;99.90;;;;;;4949918;28;20407;-77
2022/01/09 07:52:17;;;;;;;33.67;12.82;;;2.10;99.90;;;;;;4990069;28;20050;-78
2022/01/09 07:54:44;;;;;;;36.40;14.75;;;2.30;99.90;;;;;;4977198;28;20598;-76
2022/01/09 07:57:11;;;;;;;46.28;15.35;;;2.40;99.90;;;;;;4981576;28;20107;-77
2022/01/09 07:59:38;;;;;;;46.58;15.25;;;2.50;99.90;;;;;;4982580;28;20057;-77
2022/01/09 08:02:07;;;;;;;30.15;11.35;;;2.50;99.90;;;;;;4980522;28;20153;-77
2022/01/09 08:04:33;;;;;;;31.63;9.95;;;2.60;99.90;;;;;;4967072;28;20585;-77
2022/01/09 08:07:00;;;;;;;31.55;10.60;;;2.60;99.90;;;;;;4966670;28;20058;-77
2022/01/09 08:09:27;;;;;;;35.80;10.23;;;2.70;99.90;;;;;;4983422;28;20038;-77
2022/01/09 08:11:55;;;;;;;43.30;10.43;;;2.90;99.90;;;;;;4999900;28;20042;-79
2022/01/09 08:14:22;;;;;;;33.97;11.35;;;3.00;99.90;;;;;;5001002;28;20054;-78
2022/01/09 08:16:48;;;;;;;33.70;10.77;;;3.00;99.90;;;;;;4980105;28;20054;-77
2022/01/09 08:19:15;;;;;;;28.50;9.50;;;3.00;99.90;;;;;;4984078;28;20103;-76
2022/01/09 08:21:42;;;;;;;22.88;7.18;;;3.00;99.90;;;;;;5009397;28;20046;-78
2022/01/09 08:24:10;;;;;;;26.67;6.82;;;3.10;99.90;;;;;;5024256;28;20786;-78
2022/01/09 08:26:37;;;;;;;30.25;6.70;;;3.10;99.90;;;;;;4979768;28;20038;-77
2022/01/09 08:29:04;;;;;;;28.38;6.90;;;3.20;99.90;;;;;;4996917;28;20384;-79
2022/01/09 08:31:30;;;;;;;18.80;5.85;;;3.20;99.90;;;;;;4978284;28;20035;-78
2022/01/09 08:33:57;;;;;;;21.63;5.40;;;3.10;99.90;;;;;;4979051;28;20125;-77
2022/01/09 08:36:24;;;;;;;16.33;5.80;;;3.10;99.90;;;;;;4977020;28;20640;-77
2022/01/09 08:38:51;;;;;;;24.75;5.35;;;3.20;99.90;;;;;;4988947;28;20042;-77
2022/01/09 08:41:18;;;;;;;22.27;5.00;;;3.20;99.90;;;;;;4982259;28;20522;-77
2022/01/09 08:43:44;;;;;;;19.25;4.32;;;3.20;99.90;;;;;;4965453;28;20093;-78
2022/01/09 08:46:11;;;;;;;21.30;5.30;;;3.20;99.90;;;;;;4958591;28;20050;-76
2022/01/09 08:48:38;;;;;;;24.58;5.35;;;3.20;99.90;;;;;;4987964;28;20089;-76
2022/01/09 08:51:06;;;;;;;16.58;4.00;;;3.20;99.90;;;;;;4966607;28;20449;-77
2022/01/09 08:53:35;;;;;;;15.63;5.50;;;3.30;99.90;;;;;;4967370;28;20449;-76
2022/01/09 08:56:06;;;;;;;22.10;5.68;;;3.30;99.90;;;;;;4969966;28;20196;-77
2022/01/09 08:58:33;;;;;;;25.63;6.00;;;3.30;99.90;;;;;;4983848;28;20124;-76
2022/01/09 09:01:00;;;;;;;18.67;6.10;;;3.20;99.90;;;;;;4985918;28;20104;-75
2022/01/09 09:03:27;;;;;;;22.17;7.15;;;3.30;99.90;;;;;;4985184;28;20054;-77
2022/01/09 09:05:54;;;;;;;13.55;5.47;;;3.30;99.90;;;;;;4985694;28;20046;-76
2022/01/09 09:08:21;;;;;;;17.10;4.50;;;3.20;99.90;;;;;;4984780;28;20057;-76
2022/01/09 09:10:48;;;;;;;24.95;4.30;;;3.20;99.90;;;;;;4982177;28;20054;-77
2022/01/09 09:13:14;;;;;;;29.00;5.75;;;3.20;99.90;;;;;;4986122;28;20050;-76
2022/01/09 09:15:41;;;;;;;23.67;4.72;;;3.20;99.90;;;;;;4985342;28;20097;-78
2022/01/09 09:18:08;;;;;;;20.67;5.80;;;3.20;99.90;;;;;;4969581;28;20120;-78
2022/01/09 09:20:36;;;;;;;13.57;4.93;;;3.20;99.90;;;;;;4968599;28;20072;-77
2022/01/09 09:23:03;;;;;;;14.35;5.50;;;3.30;99.90;;;;;;4971520;28;20050;-79
2022/01/09 09:25:30;;;;;;;18.73;5.78;;;3.20;99.90;;;;;;4985099;28;20072;-77
2022/01/09 09:27:56;;;;;;;29.55;6.40;;;3.20;99.90;;;;;;4968993;28;20129;-78
2022/01/09 09:30:23;;;;;;;14.77;6.07;;;3.20;99.90;;;;;;5008390;28;20105;-79
2022/01/09 09:32:50;;;;;;;29.10;7.30;;;3.20;99.90;;;;;;4968767;28;20494;-79
2022/01/09 09:35:17;;;;;;;20.55;6.72;;;3.20;99.90;;;;;;4997001;28;20047;-78
2022/01/09 09:37:44;;;;;;;27.50;5.95;;;3.20;99.90;;;;;;4966798;28;20142;-78
2022/01/09 09:40:12;;;;;;;15.65;6.65;;;3.20;99.90;;;;;;4950552;28;20078;-78
2022/01/09 09:42:39;;;;;;;19.45;6.72;;;3.20;99.90;;;;;;4988935;28;20062;-78
2022/01/09 09:45:08;;;;;;;21.42;7.38;;;3.20;99.90;;;;;;4984854;28;20118;-79
2022/01/09 09:47:37;;;;;;;16.08;7.35;;;3.20;99.90;;;;;;4967003;28;20132;-80
2022/01/09 09:50:06;;;;;;;15.80;6.45;;;3.20;99.90;;;;;;4951771;28;20031;-79
2022/01/09 09:52:33;;;;;;;25.08;7.20;;;3.20;99.90;;;;;;4970432;28;20046;-79
2022/01/09 09:55:04;;;;;;;15.40;6.43;;;3.20;99.90;;;;;;4985821;28;20097;-80
2022/01/09 09:57:31;;;;;;;14.57;7.25;;;3.20;99.90;;;;;;4967004;28;20070;-80
2022/01/09 10:00:17;;;;;;;18.83;6.72;;;3.20;99.90;;;;;;4967889;28;20046;-80
2022/01/09 10:02:45;;;;;;;27.45;9.95;;;3.20;99.90;;;;;;4982267;28;20054;-81
2022/01/09 10:05:15;;;;;;;21.20;8.20;;;3.20;99.90;;;;;;4967276;28;20081;-80
2022/01/09 10:07:42;;;;;;;18.30;6.45;;;3.30;99.90;;;;;;4967847;28;20371;-81
2022/01/09 10:10:18;;;;;;;35.28;9.00;;;3.30;99.90;;;;;;4967297;28;20561;-80
2022/01/09 10:12:47;;;;;;;30.88;9.80;;;3.40;99.90;;;;;;4967293;28;20137;-80
2022/01/09 10:15:17;;;;;;;24.38;9.15;;;3.40;99.90;;;;;;4999508;28;20104;-81
2022/01/09 10:17:47;;;;;;;30.92;9.90;;;3.40;99.90;;;;;;4966876;28;20065;-80
2022/01/09 10:20:23;;;;;;;23.67;7.50;;;3.40;99.90;;;;;;4965692;28;20256;-81
2022/01/09 10:22:55;;;;;;;32.55;9.38;;;3.40;99.90;;;;;;4999542;28;20144;-80
2022/01/09 10:25:32;;;;;;;21.10;6.80;;;3.40;99.90;;;;;;4966066;28;20139;-81
2022/01/09 10:28:05;;;;;;;34.95;10.75;;;3.40;99.90;;;;;;4983683;28;20046;-80
2022/01/09 10:30:41;;;;;;;18.80;8.10;;;3.40;99.90;;;;;;4982638;28;20517;-80
2022/01/09 10:33:15;;;;;;;27.30;9.80;;;3.40;99.90;;;;;;4985849;28;20112;-81
2022/01/09 10:35:45;;;;;;;22.88;7.90;;;3.40;99.90;;;;;;4985262;28;20042;-81
2022/01/09 10:38:23;;;;;;;31.42;9.88;;;3.40;99.90;;;;;;4981651;28;20051;-82
2022/01/09 10:40:53;;;;;;;31.35;10.95;;;3.40;99.90;;;;;;5016740;28;20132;-81
2022/01/09 10:43:34;;;;;;;28.33;9.38;;;3.40;99.90;;;;;;4981598;28;20073;-81
2022/01/09 10:46:02;;;;;;;27.45;7.75;;;3.40;99.90;;;;;;5015162;28;20058;-80
2022/01/09 10:48:32;;;;;;;25.23;8.35;;;3.40;99.90;;;;;;4969086;28;20105;-80
2022/01/09 10:51:00;;;;;;;25.23;10.10;;;3.40;99.90;;;;;;4995859;28;20042;-80
2022/01/09 10:53:29;;;;;;;32.50;10.65;;;3.40;99.90;;;;;;4975209;28;20525;-79
2022/01/09 10:56:15;;;;;;;30.67;9.85;;;3.40;99.90;;;;;;4997240;28;20044;-78
2022/01/09 10:58:46;;;;;;;25.35;9.38;;;3.40;99.90;;;;;;5006906;28;20054;-79
2022/01/09 11:01:31;;;;;;;20.17;8.02;;;3.50;99.90;;;;;;4969243;28;20046;-79
2022/01/09 11:04:07;;;;;;;17.02;6.95;;;3.50;99.90;;;;;;4983283;28;20580;-80
2022/01/09 11:06:38;;;;;;;31.05;8.73;;;3.40;99.90;;;;;;4982343;28;20050;-78
2022/01/09 11:09:06;;;;;;;34.20;9.45;;;3.50;99.90;;;;;;4967023;28;20054;-79
2022/01/09 11:11:38;;;;;;;21.95;7.97;;;3.50;99.90;;;;;;4982386;28;20039;-78
2022/01/09 11:14:11;;;;;;;22.08;8.80;;;3.50;99.90;;;;;;4970585;28;20577;-80
2022/01/09 11:16:44;;;;;;;29.38;9.48;;;3.50;99.90;;;;;;4978164;28;20161;-78
2022/01/09 11:19:16;;;;;;;25.02;9.13;;;3.50;99.90;;;;;;4974709;28;20576;-77
2022/01/09 11:21:47;;;;;;;24.00;8.75;;;3.50;99.90;;;;;;4978320;28;20534;-77
2022/01/09 11:24:21;;;;;;;30.08;8.40;;;3.50;99.90;;;;;;5003452;28;20504;-80
2022/01/09 11:26:54;;;;;;;23.50;9.65;;;3.50;99.90;;;;;;5003506;28;20134;-79
2022/01/09 11:29:37;;;;;;;27.95;9.50;;;3.50;99.90;;;;;;4988793;28;20058;-79
2022/01/09 11:32:14;;;;;;;22.92;8.88;;;3.50;99.90;;;;;;4983855;28;20052;-78
2022/01/09 11:35:06;;;;;;;26.92;10.18;;;3.50;99.90;;;;;;4968700;28;20073;-79
2022/01/09 11:37:52;;;;;;;25.85;9.20;;;3.50;99.90;;;;;;4964583;28;20298;-78
2022/01/09 11:40:26;;;;;;;;;;;3.50;99.90;;;;;;4981725;28;20047;-77
2022/01/09 11:43:14;;;;;;;28.33;9.60;;;3.60;99.90;;;;;;4987897;28;19957;-78
2022/01/09 11:45:57;;;;;;;21.48;9.45;;;3.60;99.90;;;;;;4951331;28;20350;-78
2022/01/09 11:49:06;;;;;;;19.02;9.43;;;3.60;99.90;;;;;;4972669;28;20061;-76
2022/01/09 11:51:35;;;;;;;27.75;11.82;;;3.60;99.90;;;;;;4988988;28;20043;-76
2022/01/09 11:54:35;;;;;;;33.10;10.57;;;3.60;99.90;;;;;;4967690;28;20320;-75
2022/01/09 11:57:18;;;;;;;27.85;10.63;;;3.60;99.90;;;;;;4944683;28;20046;-76
2022/01/09 11:59:51;;;;;;;27.40;11.27;;;3.60;99.90;;;;;;4996778;28;20156;-76
2022/01/09 12:02:18;;;;;;;27.55;11.55;;;3.60;99.90;;;;;;4978186;28;20058;-74
2022/01/09 12:04:48;;;;;;;25.83;10.15;;;3.70;99.90;;;;;;4979452;28;20057;-75
2022/01/09 12:07:43;;;;;;;27.67;9.63;;;3.60;99.90;;;;;;4980283;28;20046;-75
2022/01/09 12:10:28;;;;;;;25.53;11.50;;;3.60;99.90;;;;;;4942193;28;20308;-75
2022/01/09 12:12:57;;;;;;;31.23;10.73;;;3.60;99.90;;;;;;4981691;28;20741;-75
2022/01/09 12:15:35;;;;;;;29.25;11.23;;;3.60;99.90;;;;;;4978202;28;20058;-74
2022/01/09 12:18:03;;;;;;;28.95;11.10;;;3.60;99.90;;;;;;4982911;28;20054;-74
2022/01/09 12:20:37;;;;;;;32.40;13.30;;;3.60;99.90;;;;;;4976281;28;20047;-73
2022/01/09 12:23:06;;;;;;;27.60;10.77;;;3.60;99.90;;;;;;4981115;28;20062;-73
2022/01/09 12:25:35;;;;;;;22.55;11.65;;;3.70;99.90;;;;;;4945597;23;20057;-78
2022/01/09 12:28:14;;;;;;;35.88;12.95;;;3.70;99.90;;;;;;4935396;28;20065;-79
2022/01/09 12:30:44;;;;;;;32.47;12.93;;;3.80;99.90;;;;;;4952599;28;20105;-78
2022/01/09 12:33:19;;;;;;;29.88;13.23;;;3.80;99.90;;;;;;4953739;28;20077;-77
2022/01/09 12:35:54;;;;;;;30.55;11.80;;;3.80;99.90;;;;;;4952592;28;20046;-78
2022/01/09 12:38:22;;;;;;;20.80;10.23;;;3.80;99.90;;;;;;4954574;28;20704;-77
2022/01/09 12:41:00;;;;;;;24.25;12.88;;;3.90;99.90;;;;;;4953078;28;20093;-76
2022/01/09 12:43:28;;;;;;;29.45;12.57;;;3.80;99.90;;;;;;4937284;28;20058;-76
2022/01/09 12:45:56;;;;;;;30.20;14.02;;;3.90;99.90;;;;;;4933849;28;20279;-77
2022/01/09 12:48:27;;;;;;;27.23;11.45;;;3.90;99.90;;;;;;4951737;28;20050;-76
2022/01/09 12:50:56;;;;;;;25.95;12.48;;;3.90;99.90;;;;;;4932692;28;20039;-77
2022/01/09 12:53:28;;;;;;;25.05;12.40;;;3.90;99.90;;;;;;4967839;28;20055;-77
2022/01/09 12:56:15;;;;;;;29.95;11.10;;;3.90;99.90;;;;;;4952954;28;20038;-76
2022/01/09 12:58:43;;;;;;;23.63;12.00;;;3.80;99.90;;;;;;4934534;28;20430;-76
2022/01/09 13:01:12;;;;;;;28.02;10.18;;;3.90;99.90;;;;;;4949959;28;20051;-77
2022/01/09 13:03:44;;;;;;;28.73;9.93;;;3.90;99.90;;;;;;4933235;29;20149;-75